sensor_id;sensor_type;location;lat;lon;timestamp;temperature;humidity
15099;DHT22;33900;53.640;9.942;2023-09-07T00:01:06;22.50;86.40
15099;DHT22;33900;53.640;9.942;2023-09-07T00:03:32;22.50;86.60
15099;DHT22;33900;53.640;9.942;2023-09-07T00:05:58;22.50;86.70
15099;DHT22;33900;53.640;9.942;2023-09-07T00:08:23;22.40;86.70
15099;DHT22;33900;53.640;9.942;2023-09-07T00:10:51;22.40;86.80
15099;DHT22;33900;53.640;9.942;2023-09-07T00:13:16;22.40;86.90
15099;DHT22;33900;53.640;9.942;2023-09-07T00:15:42;22.30;86.90
15099;DHT22;33900;53.640;9.942;2023-09-07T00:18:08;22.40;87.00
15099;DHT22;33900;53.640;9.942;2023-09-07T00:20:34;22.30;87.10
15099;DHT22;33900;53.640;9.942;2023-09-07T00:23:00;22.30;87.10
15099;DHT22;33900;53.640;9.942;2023-09-07T00:25:26;22.20;87.10
15099;DHT22;33900;53.640;9.942;2023-09-07T00:27:51;22.20;87.20
15099;DHT22;33900;53.640;9.942;2023-09-07T00:30:17;22.20;87.30
15099;DHT22;33900;53.640;9.942;2023-09-07T00:32:43;22.20;87.40
15099;DHT22;33900;53.640;9.942;2023-09-07T00:35:09;22.20;87.40
15099;DHT22;33900;53.640;9.942;2023-09-07T00:37:34;22.20;87.50
15099;DHT22;33900;53.640;9.942;2023-09-07T00:40:00;22.10;87.50
15099;DHT22;33900;53.640;9.942;2023-09-07T00:42:25;22.00;87.50
15099;DHT22;33900;53.640;9.942;2023-09-07T00:44:51;22.10;87.60
15099;DHT22;33900;53.640;9.942;2023-09-07T00:47:16;22.00;87.70
15099;DHT22;33900;53.640;9.942;2023-09-07T00:49:43;22.00;87.70
15099;DHT22;33900;53.640;9.942;2023-09-07T00:52:09;21.90;87.70
15099;DHT22;33900;53.640;9.942;2023-09-07T00:54:36;22.00;87.90
15099;DHT22;33900;53.640;9.942;2023-09-07T00:57:04;22.00;88.00
15099;DHT22;33900;53.640;9.942;2023-09-07T00:59:31;22.00;88.00
15099;DHT22;33900;53.640;9.942;2023-09-07T01:01:57;21.90;88.00
15099;DHT22;33900;53.640;9.942;2023-09-07T01:04:23;21.90;88.10
15099;DHT22;33900;53.640;9.942;2023-09-07T01:09:51;21.90;88.30
15099;DHT22;33900;53.640;9.942;2023-09-07T01:12:18;21.90;88.30
15099;DHT22;33900;53.640;9.942;2023-09-07T01:14:43;21.80;88.30
15099;DHT22;33900;53.640;9.942;2023-09-07T01:17:09;21.90;88.40
15099;DHT22;33900;53.640;9.942;2023-09-07T01:19:37;21.80;88.40
15099;DHT22;33900;53.640;9.942;2023-09-07T01:22:03;21.80;88.40
15099;DHT22;33900;53.640;9.942;2023-09-07T01:24:30;21.80;88.60
15099;DHT22;33900;53.640;9.942;2023-09-07T01:26:56;21.70;88.50
15099;DHT22;33900;53.640;9.942;2023-09-07T01:29:22;21.70;88.50
15099;DHT22;33900;53.640;9.942;2023-09-07T01:31:48;21.70;88.60
15099;DHT22;33900;53.640;9.942;2023-09-07T01:34:13;21.60;88.60
15099;DHT22;33900;53.640;9.942;2023-09-07T01:36:40;21.60;88.70
15099;DHT22;33900;53.640;9.942;2023-09-07T01:39:05;21.60;88.70
15099;DHT22;33900;53.640;9.942;2023-09-07T01:41:32;21.60;88.80
15099;DHT22;33900;53.640;9.942;2023-09-07T01:43:59;21.60;88.80
15099;DHT22;33900;53.640;9.942;2023-09-07T01:46:24;21.60;88.80
15099;DHT22;33900;53.640;9.942;2023-09-07T01:48:50;21.50;88.90
15099;DHT22;33900;53.640;9.942;2023-09-07T01:51:16;21.50;88.90
15099;DHT22;33900;53.640;9.942;2023-09-07T01:53:42;21.50;89.00
15099;DHT22;33900;53.640;9.942;2023-09-07T01:56:08;21.50;89.00
15099;DHT22;33900;53.640;9.942;2023-09-07T01:58:34;21.50;89.10
15099;DHT22;33900;53.640;9.942;2023-09-07T02:01:00;21.40;89.10
15099;DHT22;33900;53.640;9.942;2023-09-07T02:03:26;21.40;89.10
15099;DHT22;33900;53.640;9.942;2023-09-07T02:05:54;21.40;89.20
15099;DHT22;33900;53.640;9.942;2023-09-07T02:08:20;21.40;89.30
15099;DHT22;33900;53.640;9.942;2023-09-07T02:10:46;21.30;89.30
15099;DHT22;33900;53.640;9.942;2023-09-07T02:13:12;21.30;89.30
15099;DHT22;33900;53.640;9.942;2023-09-07T02:15:37;21.30;89.30
15099;DHT22;33900;53.640;9.942;2023-09-07T02:18:04;21.20;89.30
15099;DHT22;33900;53.640;9.942;2023-09-07T02:20:31;21.20;89.40
15099;DHT22;33900;53.640;9.942;2023-09-07T02:22:57;21.20;89.40
15099;DHT22;33900;53.640;9.942;2023-09-07T02:28:51;21.20;89.60
15099;DHT22;33900;53.640;9.942;2023-09-07T02:31:16;21.20;89.60
15099;DHT22;33900;53.640;9.942;2023-09-07T02:33:42;21.10;89.70
15099;DHT22;33900;53.640;9.942;2023-09-07T02:36:08;21.10;89.70
15099;DHT22;33900;53.640;9.942;2023-09-07T02:38:34;21.10;89.70
15099;DHT22;33900;53.640;9.942;2023-09-07T02:40:59;21.10;89.80
15099;DHT22;33900;53.640;9.942;2023-09-07T02:43:26;21.10;89.80
15099;DHT22;33900;53.640;9.942;2023-09-07T02:45:53;21.00;89.80
15099;DHT22;33900;53.640;9.942;2023-09-07T02:48:21;21.10;90.00
15099;DHT22;33900;53.640;9.942;2023-09-07T02:50:48;21.10;90.00
15099;DHT22;33900;53.640;9.942;2023-09-07T02:53:15;21.00;90.00
15099;DHT22;33900;53.640;9.942;2023-09-07T02:55:41;21.10;90.00
15099;DHT22;33900;53.640;9.942;2023-09-07T02:58:07;21.10;90.00
15099;DHT22;33900;53.640;9.942;2023-09-07T03:00:32;21.10;90.00
15099;DHT22;33900;53.640;9.942;2023-09-07T03:03:01;21.10;90.00
15099;DHT22;33900;53.640;9.942;2023-09-07T03:05:28;21.10;90.00
15099;DHT22;33900;53.640;9.942;2023-09-07T03:07:54;21.10;90.00
15099;DHT22;33900;53.640;9.942;2023-09-07T03:10:20;21.10;90.00
15099;DHT22;33900;53.640;9.942;2023-09-07T03:12:46;21.10;90.00
15099;DHT22;33900;53.640;9.942;2023-09-07T03:15:12;21.10;90.00
15099;DHT22;33900;53.640;9.942;2023-09-07T03:17:38;21.10;90.00
15099;DHT22;33900;53.640;9.942;2023-09-07T03:20:05;21.10;90.00
15099;DHT22;33900;53.640;9.942;2023-09-07T03:22:41;21.10;90.30
15099;DHT22;33900;53.640;9.942;2023-09-07T03:25:08;21.10;90.00
15099;DHT22;33900;53.640;9.942;2023-09-07T03:27:35;21.10;90.00
15099;DHT22;33900;53.640;9.942;2023-09-07T03:30:01;21.10;90.00
15099;DHT22;33900;53.640;9.942;2023-09-07T03:32:28;21.10;90.00
15099;DHT22;33900;53.640;9.942;2023-09-07T03:35:02;21.10;90.00
15099;DHT22;33900;53.640;9.942;2023-09-07T03:37:29;21.10;90.10
15099;DHT22;33900;53.640;9.942;2023-09-07T03:39:55;21.10;90.10
15099;DHT22;33900;53.640;9.942;2023-09-07T03:42:22;21.00;90.10
15099;DHT22;33900;53.640;9.942;2023-09-07T03:44:47;21.00;90.10
15099;DHT22;33900;53.640;9.942;2023-09-07T03:47:14;21.00;90.10
15099;DHT22;33900;53.640;9.942;2023-09-07T03:49:39;21.00;90.10
15099;DHT22;33900;53.640;9.942;2023-09-07T03:52:05;21.00;90.10
15099;DHT22;33900;53.640;9.942;2023-09-07T03:54:31;21.00;90.20
15099;DHT22;33900;53.640;9.942;2023-09-07T03:56:57;21.00;90.20
15099;DHT22;33900;53.640;9.942;2023-09-07T03:59:23;21.00;90.20
15099;DHT22;33900;53.640;9.942;2023-09-07T04:01:49;21.00;90.20
15099;DHT22;33900;53.640;9.942;2023-09-07T04:04:15;21.00;90.20
15099;DHT22;33900;53.640;9.942;2023-09-07T04:06:40;21.00;90.20
15099;DHT22;33900;53.640;9.942;2023-09-07T04:09:06;21.00;90.20
15099;DHT22;33900;53.640;9.942;2023-09-07T04:11:32;20.90;90.20
15099;DHT22;33900;53.640;9.942;2023-09-07T04:13:57;21.00;90.20
15099;DHT22;33900;53.640;9.942;2023-09-07T04:16:23;20.90;90.20
15099;DHT22;33900;53.640;9.942;2023-09-07T04:18:49;20.90;90.60
15099;DHT22;33900;53.640;9.942;2023-09-07T04:21:14;20.90;90.20
15099;DHT22;33900;53.640;9.942;2023-09-07T04:23:40;20.90;90.30
15099;DHT22;33900;53.640;9.942;2023-09-07T04:26:07;20.90;90.30
15099;DHT22;33900;53.640;9.942;2023-09-07T04:28:34;20.80;90.30
15099;DHT22;33900;53.640;9.942;2023-09-07T04:31:00;20.80;90.30
15099;DHT22;33900;53.640;9.942;2023-09-07T04:33:29;20.80;90.30
15099;DHT22;33900;53.640;9.942;2023-09-07T04:35:55;20.80;90.30
15099;DHT22;33900;53.640;9.942;2023-09-07T04:38:20;20.80;90.30
15099;DHT22;33900;53.640;9.942;2023-09-07T04:40:46;20.80;90.30
15099;DHT22;33900;53.640;9.942;2023-09-07T04:43:11;20.80;90.30
15099;DHT22;33900;53.640;9.942;2023-09-07T04:45:44;20.80;90.30
15099;DHT22;33900;53.640;9.942;2023-09-07T04:48:10;20.80;90.30
15099;DHT22;33900;53.640;9.942;2023-09-07T04:50:37;20.80;90.30
15099;DHT22;33900;53.640;9.942;2023-09-07T04:53:03;20.70;90.30
15099;DHT22;33900;53.640;9.942;2023-09-07T04:55:29;20.70;90.30
15099;DHT22;33900;53.640;9.942;2023-09-07T04:57:54;20.70;90.40
15099;DHT22;33900;53.640;9.942;2023-09-07T05:00:20;20.80;90.40
15099;DHT22;33900;53.640;9.942;2023-09-07T05:02:46;20.70;90.40
15099;DHT22;33900;53.640;9.942;2023-09-07T05:05:12;20.70;90.40
15099;DHT22;33900;53.640;9.942;2023-09-07T05:07:38;20.70;90.40
15099;DHT22;33900;53.640;9.942;2023-09-07T05:10:04;20.70;90.40
15099;DHT22;33900;53.640;9.942;2023-09-07T05:12:30;20.70;90.40
15099;DHT22;33900;53.640;9.942;2023-09-07T05:14:56;20.70;90.40
15099;DHT22;33900;53.640;9.942;2023-09-07T05:17:21;20.70;90.40
15099;DHT22;33900;53.640;9.942;2023-09-07T05:19:47;20.70;90.40
15099;DHT22;33900;53.640;9.942;2023-09-07T05:22:12;20.70;90.40
15099;DHT22;33900;53.640;9.942;2023-09-07T05:24:38;20.70;90.40
15099;DHT22;33900;53.640;9.942;2023-09-07T05:27:04;20.70;90.40
15099;DHT22;33900;53.640;9.942;2023-09-07T05:29:32;20.70;90.40
15099;DHT22;33900;53.640;9.942;2023-09-07T05:31:58;20.70;90.40
15099;DHT22;33900;53.640;9.942;2023-09-07T05:34:23;20.70;90.40
15099;DHT22;33900;53.640;9.942;2023-09-07T05:36:49;20.70;90.50
15099;DHT22;33900;53.640;9.942;2023-09-07T05:39:15;20.70;90.50
15099;DHT22;33900;53.640;9.942;2023-09-07T05:41:41;20.70;90.50
15099;DHT22;33900;53.640;9.942;2023-09-07T05:44:06;20.80;90.50
15099;DHT22;33900;53.640;9.942;2023-09-07T05:46:32;20.80;90.50
15099;DHT22;33900;53.640;9.942;2023-09-07T05:48:58;20.70;90.50
15099;DHT22;33900;53.640;9.942;2023-09-07T05:51:24;20.80;90.50
15099;DHT22;33900;53.640;9.942;2023-09-07T05:53:49;20.80;90.50
15099;DHT22;33900;53.640;9.942;2023-09-07T05:56:15;20.90;90.50
15099;DHT22;33900;53.640;9.942;2023-09-07T05:58:41;20.90;90.50
15099;DHT22;33900;53.640;9.942;2023-09-07T06:01:07;20.90;90.60
15099;DHT22;33900;53.640;9.942;2023-09-07T06:03:33;20.90;90.60
15099;DHT22;33900;53.640;9.942;2023-09-07T06:06:00;20.90;90.50
15099;DHT22;33900;53.640;9.942;2023-09-07T06:08:26;21.00;90.60
15099;DHT22;33900;53.640;9.942;2023-09-07T06:10:52;21.00;90.50
15099;DHT22;33900;53.640;9.942;2023-09-07T06:13:18;21.00;90.60
15099;DHT22;33900;53.640;9.942;2023-09-07T06:15:44;21.00;90.50
15099;DHT22;33900;53.640;9.942;2023-09-07T06:18:10;21.00;90.60
15099;DHT22;33900;53.640;9.942;2023-09-07T06:20:36;21.00;90.50
15099;DHT22;33900;53.640;9.942;2023-09-07T06:23:03;20.90;90.50
15099;DHT22;33900;53.640;9.942;2023-09-07T06:25:28;21.10;90.90
15099;DHT22;33900;53.640;9.942;2023-09-07T06:27:55;21.10;90.50
15099;DHT22;33900;53.640;9.942;2023-09-07T06:30:21;21.10;90.50
15099;DHT22;33900;53.640;9.942;2023-09-07T06:32:47;21.10;90.50
15099;DHT22;33900;53.640;9.942;2023-09-07T06:35:14;21.10;90.50
15099;DHT22;33900;53.640;9.942;2023-09-07T06:37:40;21.20;90.50
15099;DHT22;33900;53.640;9.942;2023-09-07T06:40:09;21.20;90.60
15099;DHT22;33900;53.640;9.942;2023-09-07T06:42:35;21.30;90.50
15099;DHT22;33900;53.640;9.942;2023-09-07T06:45:05;21.30;90.50
15099;DHT22;33900;53.640;9.942;2023-09-07T06:47:31;21.30;90.50
15099;DHT22;33900;53.640;9.942;2023-09-07T06:49:58;21.40;90.60
15099;DHT22;33900;53.640;9.942;2023-09-07T06:52:23;21.40;90.50
15099;DHT22;33900;53.640;9.942;2023-09-07T06:54:52;21.40;90.50
15099;DHT22;33900;53.640;9.942;2023-09-07T06:57:19;21.50;90.50
15099;DHT22;33900;53.640;9.942;2023-09-07T06:59:45;21.50;90.50
15099;DHT22;33900;53.640;9.942;2023-09-07T07:02:10;21.50;90.50
15099;DHT22;33900;53.640;9.942;2023-09-07T07:04:36;21.60;90.50
15099;DHT22;33900;53.640;9.942;2023-09-07T07:07:02;21.60;90.50
15099;DHT22;33900;53.640;9.942;2023-09-07T07:09:30;21.70;90.50
15099;DHT22;33900;53.640;9.942;2023-09-07T07:11:56;21.70;90.50
15099;DHT22;33900;53.640;9.942;2023-09-07T07:14:22;21.70;90.50
15099;DHT22;33900;53.640;9.942;2023-09-07T07:16:47;21.80;90.40
15099;DHT22;33900;53.640;9.942;2023-09-07T07:19:13;21.80;90.40
15099;DHT22;33900;53.640;9.942;2023-09-07T07:21:38;21.90;90.40
15099;DHT22;33900;53.640;9.942;2023-09-07T07:24:08;22.00;90.40
15099;DHT22;33900;53.640;9.942;2023-09-07T07:26:34;22.00;90.40
15099;DHT22;33900;53.640;9.942;2023-09-07T07:29:00;22.10;90.40
15099;DHT22;33900;53.640;9.942;2023-09-07T07:31:26;22.20;90.30
15099;DHT22;33900;53.640;9.942;2023-09-07T07:33:53;22.20;90.20
15099;DHT22;33900;53.640;9.942;2023-09-07T07:36:18;22.30;90.10
15099;DHT22;33900;53.640;9.942;2023-09-07T07:38:44;22.40;90.10
15099;DHT22;33900;53.640;9.942;2023-09-07T07:41:10;22.50;90.00
15099;DHT22;33900;53.640;9.942;2023-09-07T07:43:35;22.60;90.00
15099;DHT22;33900;53.640;9.942;2023-09-07T07:46:01;22.60;90.00
15099;DHT22;33900;53.640;9.942;2023-09-07T07:48:28;22.70;90.10
15099;DHT22;33900;53.640;9.942;2023-09-07T07:50:57;22.80;90.00
15099;DHT22;33900;53.640;9.942;2023-09-07T07:53:22;22.80;89.80
15099;DHT22;33900;53.640;9.942;2023-09-07T07:55:49;22.90;89.80
15099;DHT22;33900;53.640;9.942;2023-09-07T07:58:18;23.00;89.90
15099;DHT22;33900;53.640;9.942;2023-09-07T08:00:43;23.00;89.80
15099;DHT22;33900;53.640;9.942;2023-09-07T08:03:19;23.10;89.60
15099;DHT22;33900;53.640;9.942;2023-09-07T08:05:46;23.10;89.60
15099;DHT22;33900;53.640;9.942;2023-09-07T08:08:12;23.20;89.60
15099;DHT22;33900;53.640;9.942;2023-09-07T08:10:38;23.30;89.50
15099;DHT22;33900;53.640;9.942;2023-09-07T08:13:06;23.40;89.40
15099;DHT22;33900;53.640;9.942;2023-09-07T08:15:32;23.50;89.30
15099;DHT22;33900;53.640;9.942;2023-09-07T08:17:58;23.60;89.30
15099;DHT22;33900;53.640;9.942;2023-09-07T08:20:24;23.70;89.20
15099;DHT22;33900;53.640;9.942;2023-09-07T08:22:50;23.80;89.10
15099;DHT22;33900;53.640;9.942;2023-09-07T08:25:17;23.90;88.90
15099;DHT22;33900;53.640;9.942;2023-09-07T08:27:43;23.90;88.70
15099;DHT22;33900;53.640;9.942;2023-09-07T08:30:16;23.90;88.90
15099;DHT22;33900;53.640;9.942;2023-09-07T08:32:43;24.00;88.80
15099;DHT22;33900;53.640;9.942;2023-09-07T08:35:09;24.10;88.30
15099;DHT22;33900;53.640;9.942;2023-09-07T08:37:38;24.10;88.10
15099;DHT22;33900;53.640;9.942;2023-09-07T08:40:04;24.20;87.30
15099;DHT22;33900;53.640;9.942;2023-09-07T08:42:32;24.40;86.00
15099;DHT22;33900;53.640;9.942;2023-09-07T08:44:58;24.40;86.20
15099;DHT22;33900;53.640;9.942;2023-09-07T08:47:26;24.50;86.20
15099;DHT22;33900;53.640;9.942;2023-09-07T08:49:55;24.50;86.00
15099;DHT22;33900;53.640;9.942;2023-09-07T08:52:22;24.60;84.70
15099;DHT22;33900;53.640;9.942;2023-09-07T08:54:47;24.70;82.70
15099;DHT22;33900;53.640;9.942;2023-09-07T08:57:13;24.80;82.30
15099;DHT22;33900;53.640;9.942;2023-09-07T08:59:40;25.10;82.20
15099;DHT22;33900;53.640;9.942;2023-09-07T09:02:09;25.40;81.20
15099;DHT22;33900;53.640;9.942;2023-09-07T09:04:36;25.40;81.20
15099;DHT22;33900;53.640;9.942;2023-09-07T09:07:02;25.60;80.70
15099;DHT22;33900;53.640;9.942;2023-09-07T09:09:29;25.80;80.90
15099;DHT22;33900;53.640;9.942;2023-09-07T09:12:05;25.90;80.70
15099;DHT22;33900;53.640;9.942;2023-09-07T09:14:31;25.90;78.80
15099;DHT22;33900;53.640;9.942;2023-09-07T09:16:57;25.70;79.60
15099;DHT22;33900;53.640;9.942;2023-09-07T09:19:32;25.60;78.90
15099;DHT22;33900;53.640;9.942;2023-09-07T09:21:58;25.60;79.60
15099;DHT22;33900;53.640;9.942;2023-09-07T09:24:23;25.60;79.40
15099;DHT22;33900;53.640;9.942;2023-09-07T09:26:49;25.60;79.70
15099;DHT22;33900;53.640;9.942;2023-09-07T09:29:15;25.50;79.40
15099;DHT22;33900;53.640;9.942;2023-09-07T09:31:41;25.50;77.80
15099;DHT22;33900;53.640;9.942;2023-09-07T09:34:06;25.60;76.80
15099;DHT22;33900;53.640;9.942;2023-09-07T09:36:33;25.60;76.80
15099;DHT22;33900;53.640;9.942;2023-09-07T09:38:58;25.70;76.30
15099;DHT22;33900;53.640;9.942;2023-09-07T09:41:24;25.80;77.20
15099;DHT22;33900;53.640;9.942;2023-09-07T09:43:50;26.00;77.60
15099;DHT22;33900;53.640;9.942;2023-09-07T09:46:19;26.00;75.80
15099;DHT22;33900;53.640;9.942;2023-09-07T09:48:45;26.00;76.60
15099;DHT22;33900;53.640;9.942;2023-09-07T09:51:11;26.00;76.40
15099;DHT22;33900;53.640;9.942;2023-09-07T09:53:38;26.00;76.40
15099;DHT22;33900;53.640;9.942;2023-09-07T09:56:03;25.90;75.70
15099;DHT22;33900;53.640;9.942;2023-09-07T09:58:29;25.90;74.70
15099;DHT22;33900;53.640;9.942;2023-09-07T10:00:55;25.80;72.80
15099;DHT22;33900;53.640;9.942;2023-09-07T10:03:23;25.90;73.60
15099;DHT22;33900;53.640;9.942;2023-09-07T10:05:50;25.90;74.40
15099;DHT22;33900;53.640;9.942;2023-09-07T10:08:17;25.90;74.10
15099;DHT22;33900;53.640;9.942;2023-09-07T10:10:43;26.00;73.20
15099;DHT22;33900;53.640;9.942;2023-09-07T10:13:12;26.00;72.50
15099;DHT22;33900;53.640;9.942;2023-09-07T10:15:38;26.00;71.50
15099;DHT22;33900;53.640;9.942;2023-09-07T10:18:10;26.00;72.00
15099;DHT22;33900;53.640;9.942;2023-09-07T10:20:49;26.00;72.00
15099;DHT22;33900;53.640;9.942;2023-09-07T10:23:15;26.00;73.70
15099;DHT22;33900;53.640;9.942;2023-09-07T10:25:40;26.00;72.00
15099;DHT22;33900;53.640;9.942;2023-09-07T10:28:17;26.00;70.80
15099;DHT22;33900;53.640;9.942;2023-09-07T10:30:42;26.00;70.10
15099;DHT22;33900;53.640;9.942;2023-09-07T10:33:18;26.00;69.90
15099;DHT22;33900;53.640;9.942;2023-09-07T10:35:44;26.10;70.10
15099;DHT22;33900;53.640;9.942;2023-09-07T10:38:12;26.10;70.50
15099;DHT22;33900;53.640;9.942;2023-09-07T10:40:38;26.10;70.10
15099;DHT22;33900;53.640;9.942;2023-09-07T10:43:04;26.10;70.60
15099;DHT22;33900;53.640;9.942;2023-09-07T10:45:30;26.20;69.70
15099;DHT22;33900;53.640;9.942;2023-09-07T10:47:55;26.20;68.40
15099;DHT22;33900;53.640;9.942;2023-09-07T10:50:21;26.20;69.00
15099;DHT22;33900;53.640;9.942;2023-09-07T10:52:47;26.30;69.60
15099;DHT22;33900;53.640;9.942;2023-09-07T10:55:12;26.30;69.40
15099;DHT22;33900;53.640;9.942;2023-09-07T10:57:41;26.30;69.30
15099;DHT22;33900;53.640;9.942;2023-09-07T11:00:08;26.30;68.70
15099;DHT22;33900;53.640;9.942;2023-09-07T11:02:36;26.30;68.60
15099;DHT22;33900;53.640;9.942;2023-09-07T11:05:02;26.30;68.80
15099;DHT22;33900;53.640;9.942;2023-09-07T11:07:28;26.40;67.70
15099;DHT22;33900;53.640;9.942;2023-09-07T11:09:54;26.40;67.40
15099;DHT22;33900;53.640;9.942;2023-09-07T11:12:20;26.40;68.00
15099;DHT22;33900;53.640;9.942;2023-09-07T11:14:47;26.40;67.10
15099;DHT22;33900;53.640;9.942;2023-09-07T11:17:13;26.40;66.20
15099;DHT22;33900;53.640;9.942;2023-09-07T11:19:41;26.50;66.30
15099;DHT22;33900;53.640;9.942;2023-09-07T11:22:09;26.50;65.80
15099;DHT22;33900;53.640;9.942;2023-09-07T11:24:34;26.50;65.10
15099;DHT22;33900;53.640;9.942;2023-09-07T11:27:00;26.60;63.60
15099;DHT22;33900;53.640;9.942;2023-09-07T11:29:26;26.60;64.40
15099;DHT22;33900;53.640;9.942;2023-09-07T11:31:52;26.70;63.90
15099;DHT22;33900;53.640;9.942;2023-09-07T11:34:17;26.80;65.10
15099;DHT22;33900;53.640;9.942;2023-09-07T11:36:43;26.80;64.90
15099;DHT22;33900;53.640;9.942;2023-09-07T11:39:11;26.80;63.90
15099;DHT22;33900;53.640;9.942;2023-09-07T11:41:43;26.80;63.60
15099;DHT22;33900;53.640;9.942;2023-09-07T11:44:09;26.80;63.10
15099;DHT22;33900;53.640;9.942;2023-09-07T11:46:35;26.80;63.70
15099;DHT22;33900;53.640;9.942;2023-09-07T11:49:01;26.90;63.80
15099;DHT22;33900;53.640;9.942;2023-09-07T11:51:27;26.90;64.80
15099;DHT22;33900;53.640;9.942;2023-09-07T11:53:53;26.90;64.30
15099;DHT22;33900;53.640;9.942;2023-09-07T11:56:18;27.00;64.30
15099;DHT22;33900;53.640;9.942;2023-09-07T11:58:44;27.10;63.70
15099;DHT22;33900;53.640;9.942;2023-09-07T12:01:09;27.10;61.70
15099;DHT22;33900;53.640;9.942;2023-09-07T12:03:35;27.20;61.10
15099;DHT22;33900;53.640;9.942;2023-09-07T12:06:01;27.30;62.20
15099;DHT22;33900;53.640;9.942;2023-09-07T12:08:26;27.30;62.20
15099;DHT22;33900;53.640;9.942;2023-09-07T12:10:52;27.40;63.00
15099;DHT22;33900;53.640;9.942;2023-09-07T12:13:18;27.50;62.80
15099;DHT22;33900;53.640;9.942;2023-09-07T12:15:43;27.60;62.60
15099;DHT22;33900;53.640;9.942;2023-09-07T12:18:09;27.70;62.60
15099;DHT22;33900;53.640;9.942;2023-09-07T12:20:35;27.80;61.60
15099;DHT22;33900;53.640;9.942;2023-09-07T12:23:00;27.90;61.70
15099;DHT22;33900;53.640;9.942;2023-09-07T12:25:27;28.00;62.20
15099;DHT22;33900;53.640;9.942;2023-09-07T12:27:53;28.10;61.00
15099;DHT22;33900;53.640;9.942;2023-09-07T12:30:19;28.20;58.20
15099;DHT22;33900;53.640;9.942;2023-09-07T12:32:45;28.30;58.20
15099;DHT22;33900;53.640;9.942;2023-09-07T12:35:11;28.40;57.30
15099;DHT22;33900;53.640;9.942;2023-09-07T12:37:37;28.50;58.00
15099;DHT22;33900;53.640;9.942;2023-09-07T12:40:05;28.60;57.60
15099;DHT22;33900;53.640;9.942;2023-09-07T12:42:38;28.60;56.60
15099;DHT22;33900;53.640;9.942;2023-09-07T12:45:03;28.70;56.50
15099;DHT22;33900;53.640;9.942;2023-09-07T12:47:30;28.80;57.40
15099;DHT22;33900;53.640;9.942;2023-09-07T12:49:55;28.90;57.30
15099;DHT22;33900;53.640;9.942;2023-09-07T12:52:21;29.00;56.90
15099;DHT22;33900;53.640;9.942;2023-09-07T12:54:47;29.00;57.50
15099;DHT22;33900;53.640;9.942;2023-09-07T12:57:13;29.10;57.20
15099;DHT22;33900;53.640;9.942;2023-09-07T12:59:39;29.20;57.60
15099;DHT22;33900;53.640;9.942;2023-09-07T13:02:04;29.30;57.60
15099;DHT22;33900;53.640;9.942;2023-09-07T13:04:30;29.30;57.90
15099;DHT22;33900;53.640;9.942;2023-09-07T13:06:56;29.40;57.60
15099;DHT22;33900;53.640;9.942;2023-09-07T13:09:21;29.50;57.10
15099;DHT22;33900;53.640;9.942;2023-09-07T13:11:47;29.60;56.40
15099;DHT22;33900;53.640;9.942;2023-09-07T13:14:12;29.60;56.40
15099;DHT22;33900;53.640;9.942;2023-09-07T13:16:38;29.70;55.80
15099;DHT22;33900;53.640;9.942;2023-09-07T13:19:04;29.70;56.20
15099;DHT22;33900;53.640;9.942;2023-09-07T13:21:30;29.80;56.20
15099;DHT22;33900;53.640;9.942;2023-09-07T13:23:56;29.80;55.60
15099;DHT22;33900;53.640;9.942;2023-09-07T13:26:22;29.90;56.50
15099;DHT22;33900;53.640;9.942;2023-09-07T13:28:48;29.70;59.30
15099;DHT22;33900;53.640;9.942;2023-09-07T13:31:13;29.30;60.50
15099;DHT22;33900;53.640;9.942;2023-09-07T13:33:39;29.20;60.40
15099;DHT22;33900;53.640;9.942;2023-09-07T13:36:04;29.10;60.80
15099;DHT22;33900;53.640;9.942;2023-09-07T13:38:30;29.20;61.70
15099;DHT22;33900;53.640;9.942;2023-09-07T13:40:55;29.20;61.40
15099;DHT22;33900;53.640;9.942;2023-09-07T13:43:21;29.30;60.70
15099;DHT22;33900;53.640;9.942;2023-09-07T13:45:47;29.30;58.10
15099;DHT22;33900;53.640;9.942;2023-09-07T13:48:13;29.40;57.80
15099;DHT22;33900;53.640;9.942;2023-09-07T13:50:39;29.40;55.30
15099;DHT22;33900;53.640;9.942;2023-09-07T13:53:04;29.50;55.20
15099;DHT22;33900;53.640;9.942;2023-09-07T13:55:30;29.50;54.80
15099;DHT22;33900;53.640;9.942;2023-09-07T13:57:56;29.50;53.60
15099;DHT22;33900;53.640;9.942;2023-09-07T14:00:21;29.50;54.40
15099;DHT22;33900;53.640;9.942;2023-09-07T14:02:47;29.60;54.70
15099;DHT22;33900;53.640;9.942;2023-09-07T14:05:12;29.60;53.90
15099;DHT22;33900;53.640;9.942;2023-09-07T14:07:38;29.70;54.40
15099;DHT22;33900;53.640;9.942;2023-09-07T14:10:04;29.70;54.20
15099;DHT22;33900;53.640;9.942;2023-09-07T14:12:30;29.70;52.50
15099;DHT22;33900;53.640;9.942;2023-09-07T14:14:55;29.70;52.00
15099;DHT22;33900;53.640;9.942;2023-09-07T14:17:21;29.70;51.90
15099;DHT22;33900;53.640;9.942;2023-09-07T14:19:47;29.70;52.30
15099;DHT22;33900;53.640;9.942;2023-09-07T14:22:12;29.80;52.10
15099;DHT22;33900;53.640;9.942;2023-09-07T14:24:38;29.80;52.30
15099;DHT22;33900;53.640;9.942;2023-09-07T14:27:04;29.80;53.10
15099;DHT22;33900;53.640;9.942;2023-09-07T14:29:29;29.80;53.30
15099;DHT22;33900;53.640;9.942;2023-09-07T14:31:55;29.90;53.10
15099;DHT22;33900;53.640;9.942;2023-09-07T14:34:20;29.80;53.30
15099;DHT22;33900;53.640;9.942;2023-09-07T14:36:46;29.80;53.00
15099;DHT22;33900;53.640;9.942;2023-09-07T14:39:12;29.80;53.00
15099;DHT22;33900;53.640;9.942;2023-09-07T14:41:37;29.80;53.70
15099;DHT22;33900;53.640;9.942;2023-09-07T14:44:03;29.80;53.80
15099;DHT22;33900;53.640;9.942;2023-09-07T14:46:29;29.70;53.90
15099;DHT22;33900;53.640;9.942;2023-09-07T14:48:55;29.70;54.00
15099;DHT22;33900;53.640;9.942;2023-09-07T14:51:21;29.70;53.40
15099;DHT22;33900;53.640;9.942;2023-09-07T14:53:47;29.70;52.70
15099;DHT22;33900;53.640;9.942;2023-09-07T14:56:12;29.60;52.90
15099;DHT22;33900;53.640;9.942;2023-09-07T14:58:38;29.60;53.60
15099;DHT22;33900;53.640;9.942;2023-09-07T15:01:03;29.60;53.50
15099;DHT22;33900;53.640;9.942;2023-09-07T15:03:29;29.60;54.10
15099;DHT22;33900;53.640;9.942;2023-09-07T15:05:55;29.50;54.30
15099;DHT22;33900;53.640;9.942;2023-09-07T15:08:21;29.50;54.30
15099;DHT22;33900;53.640;9.942;2023-09-07T15:10:46;29.50;53.90
15099;DHT22;33900;53.640;9.942;2023-09-07T15:13:12;29.50;54.10
15099;DHT22;33900;53.640;9.942;2023-09-07T15:15:37;29.50;53.90
15099;DHT22;33900;53.640;9.942;2023-09-07T15:18:05;29.40;54.50
15099;DHT22;33900;53.640;9.942;2023-09-07T15:20:31;29.40;53.80
15099;DHT22;33900;53.640;9.942;2023-09-07T15:22:57;29.40;53.60
15099;DHT22;33900;53.640;9.942;2023-09-07T15:25:23;29.30;53.50
15099;DHT22;33900;53.640;9.942;2023-09-07T15:27:48;29.30;53.10
15099;DHT22;33900;53.640;9.942;2023-09-07T15:30:14;29.30;52.80